• Join FlightAware (Why Join?)
  • Login
  • US Flag 
Rudolph Flight #1: Scheduled 
11:12PM EST


 

Airport Tracker/Info


-or-


 

Live Flight TrackerFlight Track Log ✈ SWA605 ✈ 08-May-2013 ✈ KMCI - KBWI

Flight Track Log - Related Links

Times and Time Zones

All times are in EDT time to prevent confusion due to time zone crossing. See the SWA605 flight status page for this flight to view local times or setup timezone preferences in your user account.

Time Position Orientation Groundspeed Altitude Reporting Facility
EDT Latitude Longitude Course Direction KTS MPH feet Rate Location/Type
06:05PM 39.3000 -94.7333 159° South 119 137 1,700  Level Kansas City TRACON
06:06PM 39.2667 -94.7167 159° South 160 184 2,900 1,620 Climbing Kansas City TRACON
06:06PM 39.2167 -94.7167 180° South 223 257 4,300 1,920 Climbing Kansas City TRACON
06:07PM 39.2000 -94.6333 104° East 280 322 6,400 2,460 Climbing Kansas City TRACON
06:08PM 39.2042 -94.5950 82° East 276 318 7,500 2,940 Climbing Kansas City Center
06:09PM 39.2308 -94.4969 71° East 305 351 10,600 2,700 Climbing Kansas City Center
06:10PM 39.2683 -94.3625 70° East 364 419 13,100 2,460 Climbing Kansas City Center
06:11PM 39.3033 -94.2403 70° East 379 436 15,700 2,760 Climbing Kansas City Center
06:12PM 39.3478 -94.0878 69° East 404 465 18,900 2,880 Climbing Kansas City Center
06:13PM 39.3850 -93.9544 70° East 412 474 21,700 2,700 Climbing Kansas City Center
06:14PM 39.4053 -93.7883 81° East 418 481 24,500 2,220 Climbing Kansas City Center
06:15PM 39.4278 -93.6428 79° East 429 494 26,300 1,740 Climbing Kansas City Center
06:16PM 39.4456 -93.4850 82° East 446 513 28,100 1,620 Climbing Kansas City Center
06:17PM 39.4656 -93.3250 81° East 452 520 29,700 1,380 Climbing Kansas City Center
06:18PM 39.4844 -93.1614 81° East 462 532 31,000 1,380 Climbing Kansas City Center
06:19PM 39.5064 -92.9550 82° East 483 556 32,600 1,380 Climbing Kansas City Center
06:20PM 39.5267 -92.7828 81° East 489 563 33,900 1,380 Climbing Kansas City Center
06:21PM 39.5472 -92.6094 81° East 492 566 35,500 1,500 Climbing Kansas City Center
06:22PM 39.5656 -92.4400 82° East 488 562 37,000 720 Climbing Kansas City Center
06:23PM 39.5867 -92.2467 82° East 469 540 37,000  Level Kansas City Center
06:24PM 39.6047 -92.0836 82° East 463 533 37,000  Level Kansas City Center
06:25PM 39.6219 -91.9192 82° East 464 534 37,000  Level Kansas City Center
06:26PM 39.6406 -91.7525 82° East 470 541 37,000  Level Kansas City Center
06:27PM 39.6572 -91.5897 82° East 465 535 37,000  Level Kansas City Center
06:28PM 39.6772 -91.3922 82° East 465 535 37,000  Level Kansas City Center
06:29PM 39.6933 -91.2342 82° East 467 537 37,000  Level Kansas City Center
06:30PM 39.7117 -91.0656 82° East 469 540 37,000  Level Kansas City Center
06:32PM 39.7275 -90.8969 83° East 471 542 37,000  Level Kansas City Center
06:33PM 39.7464 -90.6947 83° East 471 542 37,000  Level Kansas City Center
06:34PM 39.7614 -90.5381 83° East 469 540 37,000  Level Kansas City Center
06:35PM 39.7775 -90.3717 83° East 468 539 37,000  Level Kansas City Center
06:36PM 39.7925 -90.2061 83° East 465 535 37,000  Level Kansas City Center
06:37PM 39.8106 -90.0075 83° East 464 534 37,000  Level Kansas City Center
06:38PM 39.8247 -89.8425 84° East 462 532 37,000  Level Kansas City Center
06:39PM 39.8392 -89.6778 83° East 462 532 37,000  Level Kansas City Center
06:40PM 39.8414 -89.5108 89° East 463 533 37,000 480 Level Kansas City Center
06:41PM 39.8417 -89.3389 90° East 472 543 38,000 960 Climbing Kansas City Center
06:42PM 39.8425 -89.1692 90° East 473 544 39,000 480 Climbing Kansas City Center
06:43PM 39.8422 -88.9675 90° East 469 540 39,000  Level Kansas City Center
06:44PM 39.8461 -88.7992 88° East 467 537 39,000  Level Kansas City Center
06:45PM 39.8578 -88.6311 85° East 467 537 39,000  Level Kansas City Center
06:46PM 39.8667 -88.4647 86° East 463 533 39,000  Level Kansas City Center
06:47PM 39.8739 -88.2969 87° East 465 535 39,000  Level Kansas City Center
06:48PM 39.8842 -88.1053 86° East 468 539 39,000  Level Kansas City Center
06:49PM 39.8928 -87.9350 86° East 469 540 39,000  Level Kansas City Center
06:50PM 39.9003 -87.7650 87° East 469 540 39,000  Level Kansas City Center
06:51PM 39.9081 -87.5944 87° East 468 539 39,000  Level Kansas City Center
06:52PM 39.9164 -87.3994 87° East 462 532 39,000  Level Indianapolis Center
06:53PM 39.9253 -87.2008 87° East 458 527 39,000  Level Indianapolis Center
06:54PM 39.9319 -87.0386 87° East 452 520 39,000  Level Indianapolis Center
06:55PM 39.9386 -86.8764 87° East 450 518 39,000  Level Indianapolis Center
06:56PM 39.9444 -86.7128 87° East 453 521 39,000  Level Indianapolis Center
06:58PM 39.9503 -86.5503 87° East 449 517 39,000  Level Indianapolis Center
06:59PM 39.9567 -86.3869 87° East 448 516 39,000  Level Indianapolis Center
07:00PM 39.9625 -86.2228 87° East 447 514 39,000  Level Indianapolis Center
07:01PM 39.9681 -86.0592 87° East 448 516 39,000  Level Indianapolis Center
07:02PM 39.9736 -85.8647 88° East 447 514 39,000  Level Indianapolis Center
07:03PM 39.9783 -85.7028 88° East 447 514 39,000  Level Indianapolis Center
07:04PM 39.9817 -85.5408 88° East 447 514 39,000  Level Indianapolis Center
07:05PM 39.9867 -85.3786 88° East 449 517 39,000  Level Indianapolis Center
07:06PM 39.9917 -85.2153 88° East 451 519 39,000  Level Indianapolis Center
07:07PM 39.9950 -85.0500 88° East 455 524 39,000  Level Indianapolis Center
07:08PM 39.9981 -84.8622 89° East 456 525 39,000  Level Indianapolis Center
07:09PM 40.0022 -84.6964 88° East 455 524 39,000  Level Indianapolis Center
07:10PM 40.0064 -84.5322 88° East 450 518 39,000  Level Indianapolis Center
07:11PM 40.0097 -84.3644 88° East 457 526 39,000  Level Indianapolis Center
07:12PM 40.0111 -84.1981 89° East 456 525 39,000  Level Indianapolis Center
07:13PM 40.0144 -84.0053 89° East 453 521 39,000  Level Indianapolis Center
07:14PM 40.0161 -83.8417 89° East 447 514 39,000  Level Indianapolis Center
07:15PM 40.0186 -83.6792 89° East 443 510 39,000  Level Indianapolis Center
07:16PM 40.0211 -83.5169 89° East 438 504 39,000  Level Indianapolis Center
07:17PM 40.0219 -83.3531 90° East 441 507 39,000  Level Indianapolis Center
07:18PM 40.0236 -83.1900 89° East 441 507 39,000  Level Indianapolis Center
07:19PM 40.0244 -83.0261 90° East 444 511 39,000  Level Indianapolis Center
07:20PM 40.0253 -82.8633 90° East 445 512 39,000  Level Indianapolis Center
07:21PM 40.0267 -82.7000 89° East 445 512 39,000  Level Indianapolis Center
07:22PM 40.0272 -82.5375 90° East 445 512 39,000  Level Indianapolis Center
07:23PM 40.0267 -82.3733 90° East 446 513 39,000  Level Indianapolis Center
07:24PM 40.0261 -82.1833 90° East 446 513 39,000  Level Indianapolis Center
07:25PM 40.0264 -82.0186 90° East 450 518 39,000  Level Indianapolis Center
07:26PM 40.0253 -81.8531 90° East 452 520 39,000  Level Indianapolis Center
07:27PM 40.0244 -81.7036 90° East 450 518 39,000  Level Indianapolis Center
07:28PM 40.0228 -81.5122 91° East 450 518 39,000  Level Indianapolis Center
07:30PM 40.0219 -81.3492 90° East 449 517 39,000  Level Indianapolis Center
07:31PM 40.0206 -81.1858 91° East 448 516 39,000  Level Indianapolis Center
07:32PM 40.0072 -81.0244 96° East 449 517 39,000  Level Indianapolis Center
07:32PM 40.0039 -80.9814 96° East 442 509 39,000  Level Cleveland Center
07:33PM 39.9753 -80.8242 103° East 442 509 39,000  Level Cleveland Center
07:34PM 39.9483 -80.6617 102° East 448 516 39,000 -360 Level Cleveland Center
07:35PM 39.9211 -80.5044 103° East 448 516 38,300 -900 Descending Cleveland Center
07:36PM 39.8919 -80.3450 103° East 448 516 37,300 -960 Descending Cleveland Center
07:37PM 39.8642 -80.1828 103° East 448 516 36,400 -960 Descending Cleveland Center
07:38PM 39.8344 -80.0261 104° East 448 516 35,400 -960 Descending Cleveland Center
07:39PM 39.8086 -79.8669 102° East 448 516 34,500 -960 Descending Cleveland Center
07:40PM 39.7783 -79.7078 104° East 448 516 33,500 -1,440 Descending Cleveland Center
07:41PM 39.7189 -79.5086 111° Southeast 424 488 31,200 -2,040 Descending Washington Center
07:42PM 39.6628 -79.3681 117° Southeast 424 488 28,700 -2,400 Descending Washington Center
07:43PM 39.6003 -79.2383 122° Southeast 429 494 26,500 -1,680 Descending Washington Center
07:44PM 39.5656 -79.0750 105° East 418 481 25,500 -1,080 Descending Washington Center
07:45PM 39.5486 -78.9314 99° East 407 468 24,400 -1,080 Descending Washington Center
07:46PM 39.5317 -78.7881 99° East 402 463 23,400 -1,020 Descending Washington Center
07:47PM 39.5125 -78.6472 100° East 397 457 22,400 -1,260 Descending Washington Center
07:48PM 39.4969 -78.5122 98° East 392 451 21,000 -1,740 Descending Washington Center
07:49PM 39.4794 -78.3769 99° East 387 445 18,900 -2,220 Descending Washington Center
07:50PM 39.4636 -78.2447 99° East 381 438 16,600 -1,740 Descending Washington Center
07:51PM 39.4578 -78.1317 94° East 368 423 15,400 -840 Descending Washington Center
07:52PM 39.4542 -77.9997 92° East 362 417 15,000 -240 Descending Washington Center
07:53PM 39.4525 -77.8708 91° East 357 411 15,000 -120 Level Washington Center
07:54PM 39.4508 -77.7417 91° East 357 411 14,800 -600 Descending Washington Center
07:55PM 39.4486 -77.6181 91° East 352 405 13,800 -960 Descending Washington Center
07:56PM 39.4467 -77.4942 91° East 347 399 12,900 -1,440 Descending Washington Center
07:57PM 39.4500 -77.3667 88° East 335 386 11,000 -1,020 Descending Potomac TRACON
07:58PM 39.4667 -77.2500 79° East 327 376 11,000 -180 Level Potomac TRACON
07:59PM 39.4833 -77.1167 81° East 332 382 10,700 -540 Descending Potomac TRACON
08:00PM 39.4833 -77.0167 90° East 302 348 10,000 -900 Descending Potomac TRACON
08:01PM 39.5000 -76.9167 78° East 271 312 9,000 -1,020 Descending Potomac TRACON
08:02PM 39.4833 -76.8167 102° East 263 303 8,000 -1,020 Descending Potomac TRACON
08:03PM 39.4833 -76.7333 90° East 262 302 7,100 -1,020 Descending Potomac TRACON
08:04PM 39.4667 -76.6500 104° East 262 302 6,100 -1,200 Descending Potomac TRACON
08:05PM 39.4167 -76.5833 134° Southeast 252 290 4,800 -1,080 Descending Potomac TRACON
08:06PM 39.3667 -76.5167 134° Southeast 247 284 4,000 -420 Descending Potomac TRACON
08:07PM 39.3000 -76.4833 159° South 238 274 4,000 -540 Level Potomac TRACON
08:08PM 39.2500 -76.4833 180° South 240 276 3,000 -720 Descending Potomac TRACON
08:09PM 39.1833 -76.5167 201° Southwest 203 234 2,600 -600 Descending Potomac TRACON
08:10PM 39.1500 -76.5500 218° Southwest 163 188 1,900 -540 Descending Potomac TRACON
08:11PM 39.1333 -76.6000 247° West 139 160 1,600 -540 Descending Potomac TRACON
08:12PM 39.1333 -76.6333 270° West 146 168 900 -780 Descending Potomac TRACON
08:14PM 39.1667 -76.6667 280° West  Level FlightAware Approximate